Time;durP1;ratioP1;P1;durP2;ratioP2;P2;SDS_P1;SDS_P2;PMS_P1;PMS_P2;Temp;Humidity;BMP_temperature;BMP_pressure;BME280_temperature;BME280_humidity;BME280_pressure;Samples;Min_cycle;Max_cycle;Signal;HPM_P1;HPM_P2
2021/06/05 00:04:39;;;;;;;4.45;1.40;;;;;;;19.66;81.85;100445.06;10250622;28;20158;-60
2021/06/05 00:09:42;;;;;;;3.05;1.40;;;;;;;19.69;82.04;100440.13;10240216;28;20190;-60
2021/06/05 00:14:44;;;;;;;2.90;1.27;;;;;;;19.66;82.72;100440.50;10251068;28;20074;-60
2021/06/05 00:19:46;;;;;;;1.88;1.50;;;;;;;19.63;82.59;100440.84;10250277;28;20191;-60
2021/06/05 00:24:48;;;;;;;3.15;1.50;;;;;;;19.56;81.11;100437.19;10243080;28;20473;-61
2021/06/05 00:29:49;;;;;;;2.28;1.52;;;;;;;19.55;81.64;100454.41;10250522;28;20043;-61
2021/06/05 00:34:50;;;;;;;1.95;1.13;;;;;;;19.48;81.11;100450.75;10232010;28;20113;-60
2021/06/05 00:39:52;;;;;;;2.92;1.10;;;;;;;19.31;80.80;100467.00;10245153;28;20054;-60
2021/06/05 00:44:53;;;;;;;2.33;1.02;;;;;;;19.23;81.55;100458.94;10230635;28;20054;-61
2021/06/05 00:49:55;;;;;;;3.85;1.25;;;;;;;19.29;81.24;100463.66;10247894;28;20480;-61
2021/06/05 00:54:58;;;;;;;1.83;1.30;;;;;;;19.28;81.86;100469.22;10240627;28;20067;-59
2021/06/05 00:59:59;;;;;;;2.33;1.38;;;;;;;19.20;81.26;100489.84;10246201;28;20655;-59
2021/06/05 01:05:01;;;;;;;2.88;1.92;;;;;;;19.03;81.91;100483.63;10222329;28;20074;-60
2021/06/05 01:10:05;;;;;;;3.17;1.33;;;;;;;18.91;82.68;100495.81;10248828;23;20062;-64
2021/06/05 01:15:12;;;;;;;3.65;1.20;;;;;;;18.99;83.57;100487.72;10259598;28;20138;-62
2021/06/05 01:20:38;;;;;;;2.63;1.45;;;;;;;19.08;84.18;100475.03;10225052;28;20523;-63
2021/06/05 01:25:52;;;;;;;2.90;1.33;;;;;;;19.11;82.93;100484.63;10217730;28;20283;-66
2021/06/05 01:30:56;;;;;;;4.07;1.83;;;;;;;19.12;83.37;100492.53;10223183;28;20071;-64
2021/06/05 01:35:59;;;;;;;1.90;1.33;;;;;;;19.15;82.62;100491.34;10226597;28;20043;-65
2021/06/05 01:41:01;;;;;;;1.73;1.50;;;;;;;19.12;83.13;100486.31;10221684;28;20098;-65
2021/06/05 01:46:04;;;;;;;1.90;1.70;;;;;;;19.08;83.41;100483.97;10209405;28;20059;-66
2021/06/05 01:51:10;;;;;;;3.30;1.80;;;;;;;19.05;84.40;100488.84;10209191;28;20134;-66
2021/06/05 01:56:18;;;;;;;3.00;1.45;;;;;;;19.04;84.06;100493.41;10216492;28;20079;-65
2021/06/05 02:01:19;;;;;;;4.05;1.50;;;;;;;19.05;84.24;100496.94;10221848;28;20047;-62
2021/06/05 02:06:23;;;;;;;3.72;2.00;;;;;;;19.05;84.06;100492.41;10214020;28;20055;-62
2021/06/05 02:11:27;;;;;;;2.78;2.03;;;;;;;18.99;84.84;100485.00;10219038;28;20043;-62
2021/06/05 02:16:35;;;;;;;2.92;2.53;;;;;;;19.03;85.45;100489.03;10216878;28;20055;-63
2021/06/05 02:21:41;;;;;;;4.30;3.95;;;;;;;19.13;85.27;100488.84;10214219;28;20747;-63
2021/06/05 02:26:43;;;;;;;7.65;6.15;;;;;;;19.02;85.52;100487.34;10223111;28;20072;-64
2021/06/05 02:31:50;;;;;;;8.55;7.75;;;;;;;19.00;85.97;100486.66;10214983;28;20058;-64
2021/06/05 02:36:57;;;;;;;8.43;7.55;;;;;;;18.99;85.97;100476.06;10223445;28;20126;-64
2021/06/05 02:41:59;;;;;;;9.70;8.50;;;;;;;18.95;86.10;100474.75;10220840;28;20394;-68
2021/06/05 02:47:06;;;;;;;9.00;8.10;;;;;;;18.93;85.83;100474.91;10220578;28;20135;-64
2021/06/05 02:52:30;;;;;;;9.40;8.13;;;;;;;18.99;86.27;100482.31;10215834;28;20066;-64
2021/06/05 02:57:32;;;;;;;9.68;8.60;;;;;;;18.95;85.72;100485.53;10212905;28;20572;-64
2021/06/05 03:02:52;;;;;;;9.35;8.45;;;;;;;18.83;85.84;100487.72;10211931;28;20052;-64
2021/06/05 03:07:55;;;;;;;8.98;8.18;;;;;;;18.75;86.82;100491.28;10218438;28;20109;-64
2021/06/05 03:12:58;;;;;;;8.15;7.18;;;;;;;18.71;86.57;100496.16;10217843;28;20110;-64
2021/06/05 03:18:00;;;;;;;8.50;7.70;;;;;;;18.69;87.23;100492.78;10212708;28;20047;-62
2021/06/05 03:23:03;;;;;;;8.80;7.22;;;;;;;18.66;86.71;100497.66;10219327;28;20412;-62
2021/06/05 03:28:06;;;;;;;6.40;5.80;;;;;;;18.54;87.45;100506.13;10224844;28;20063;-63
2021/06/05 03:33:08;;;;;;;8.00;6.13;;;;;;;18.46;87.39;100505.28;10223216;28;20051;-62
2021/06/05 03:38:10;;;;;;;6.20;5.60;;;;;;;18.49;87.08;100513.84;10206655;28;20055;-64
2021/06/05 03:43:12;;;;;;;6.28;5.68;;;;;;;18.42;86.44;100498.53;10206104;28;20078;-63
2021/06/05 03:48:14;;;;;;;7.15;6.45;;;;;;;18.48;86.74;100501.41;10219542;28;20074;-62
2021/06/05 03:53:16;;;;;;;7.22;6.53;;;;;;;18.47;86.87;100509.66;10219779;28;20043;-62
2021/06/05 03:58:24;;;;;;;7.07;6.38;;;;;;;18.49;86.58;100518.41;10218663;28;20129;-66
2021/06/05 04:03:25;;;;;;;8.85;7.70;;;;;;;18.50;86.63;100514.72;10190702;28;20135;-66
2021/06/05 04:08:27;;;;;;;8.57;7.70;;;;;;;18.57;86.46;100510.34;10211246;28;20130;-67
2021/06/05 04:13:28;;;;;;;9.57;7.90;;;;;;;18.56;85.75;100503.25;10207993;28;20108;-65
2021/06/05 04:18:34;;;;;;;10.02;9.10;;;;;;;18.52;84.85;100507.28;10207115;28;20063;-67
2021/06/05 04:23:36;;;;;;;9.02;8.13;;;;;;;18.57;85.91;100504.94;10207708;28;20337;-62
2021/06/05 04:28:39;;;;;;;11.32;9.13;;;;;;;18.61;85.21;100510.81;10219831;28;20627;-62
2021/06/05 04:33:41;;;;;;;13.15;11.20;;;;;;;18.67;85.86;100515.53;10216420;28;20062;-63
2021/06/05 04:38:43;;;;;;;11.57;10.48;;;;;;;18.78;84.64;100514.34;10209239;28;20118;-62
2021/06/05 04:43:45;;;;;;;13.15;11.30;;;;;;;18.88;84.61;100515.03;10208067;28;20047;-62
2021/06/05 04:48:47;;;;;;;13.02;11.73;;;;;;;18.94;83.78;100514.34;10214007;28;20067;-62
2021/06/05 04:53:49;;;;;;;12.70;11.50;;;;;;;18.98;84.22;100502.19;10207480;28;20047;-62
2021/06/05 04:58:50;;;;;;;12.85;11.65;;;;;;;19.15;83.76;100499.47;10212911;28;20201;-63
2021/06/05 05:03:52;;;;;;;13.57;11.98;;;;;;;19.24;82.81;100507.34;10210089;28;20137;-62
2021/06/05 05:08:54;;;;;;;13.27;12.05;;;;;;;19.25;81.24;100510.91;10212588;28;20567;-62
2021/06/05 05:13:55;;;;;;;12.70;11.43;;;;;;;19.32;81.70;100505.63;10168129;28;20134;-62
2021/06/05 05:18:58;;;;;;;12.57;11.40;;;;;;;19.37;82.12;100493.28;10175722;28;20071;-64
2021/06/05 05:23:59;;;;;;;11.93;10.77;;;;;;;19.51;81.52;100507.06;10157942;28;20147;-62
2021/06/05 05:29:00;;;;;;;10.63;9.63;;;;;;;19.59;80.93;100498.91;10173185;28;20048;-67
2021/06/05 05:34:02;;;;;;;8.60;7.90;;;;;;;19.72;80.81;100501.88;10156715;28;20142;-62
2021/06/05 05:39:12;;;;;;;7.20;6.50;;;;;;;19.85;79.94;100504.06;10161348;29;20481;-62
2021/06/05 05:44:15;;;;;;;8.02;7.22;;;;;;;19.97;79.41;100496.38;10165317;29;20468;-61
2021/06/05 05:49:16;;;;;;;8.07;7.28;;;;;;;20.10;78.63;100493.06;10150112;29;20209;-61
2021/06/05 05:54:18;;;;;;;7.50;6.50;;;;;;;20.19;79.47;100496.56;10165970;29;20052;-62
2021/06/05 05:59:20;;;;;;;6.88;5.95;;;;;;;20.32;77.28;100499.50;10168152;28;20052;-62
2021/06/05 06:04:22;;;;;;;6.68;5.07;;;;;;;20.39;76.21;100489.66;10168739;29;20088;-63
2021/06/05 06:09:23;;;;;;;6.50;5.50;;;;;;;20.62;75.60;100505.00;10170853;28;20052;-62
2021/06/05 06:14:25;;;;;;;7.20;6.50;;;;;;;20.69;74.95;100521.34;10216680;28;20457;-62
2021/06/05 06:19:26;;;;;;;7.32;6.63;;;;;;;20.61;74.05;100506.00;10212023;28;20129;-60
2021/06/05 06:24:28;;;;;;;8.85;6.72;;;;;;;20.70;73.65;100515.75;10208796;28;20138;-61
2021/06/05 06:29:31;;;;;;;8.10;7.28;;;;;;;20.66;73.12;100523.41;10208043;28;21220;-60
2021/06/05 06:34:34;;;;;;;6.55;5.95;;;;;;;20.98;73.34;100517.84;10206298;28;20570;-61
2021/06/05 06:39:36;;;;;;;6.05;5.22;;;;;;;21.41;71.02;100520.75;10208266;28;20071;-59
2021/06/05 06:44:37;;;;;;;4.25;3.50;;;;;;;21.40;69.05;100496.56;10206269;28;20078;-59
2021/06/05 06:49:39;;;;;;;4.80;4.35;;;;;;;21.20;68.58;100513.38;10209041;28;20067;-59
2021/06/05 06:54:40;;;;;;;6.93;5.55;;;;;;;20.94;69.86;100519.25;10204698;28;20065;-58
2021/06/05 06:59:42;;;;;;;4.97;4.47;;;;;;;20.77;71.23;100534.81;10207069;28;20094;-58
2021/06/05 07:04:43;;;;;;;5.25;4.40;;;;;;;20.65;72.15;100524.41;10207061;28;20059;-61
2021/06/05 07:09:45;;;;;;;4.40;4.00;;;;;;;20.76;72.67;100533.97;10207310;28;20051;-59
2021/06/05 07:14:46;;;;;;;7.70;7.03;;;;;;;20.70;72.34;100529.28;10205291;28;20138;-59
2021/06/05 07:19:48;;;;;;;5.10;4.70;;;;;;;20.76;73.13;100525.84;10207127;28;20057;-58
2021/06/05 07:24:49;;;;;;;7.32;6.63;;;;;;;20.73;72.50;100528.94;10205299;28;20218;-58
2021/06/05 07:29:51;;;;;;;6.10;5.28;;;;;;;20.65;72.30;100526.25;10205725;28;20055;-61
2021/06/05 07:34:52;;;;;;;7.75;6.35;;;;;;;20.61;72.50;100527.63;10209587;28;20071;-61
2021/06/05 07:39:54;;;;;;;6.32;5.75;;;;;;;20.78;72.40;100536.50;10205139;28;22322;-61
2021/06/05 07:44:55;;;;;;;8.52;7.70;;;;;;;20.95;72.46;100534.47;10209383;28;20126;-61
2021/06/05 07:49:57;;;;;;;8.35;7.68;;;;;;;21.01;70.92;100531.00;10206261;28;20066;-61
2021/06/05 07:54:58;;;;;;;7.57;6.97;;;;;;;21.15;70.96;100538.31;10207254;28;20051;-61
2021/06/05 08:00:00;;;;;;;7.72;6.95;;;;;;;21.24;70.62;100535.50;10205828;28;20086;-61
2021/06/05 08:05:03;;;;;;;7.97;6.68;;;;;;;21.42;69.46;100524.28;10205164;28;20047;-62
2021/06/05 08:10:06;;;;;;;;;;;;;;;21.48;68.95;100527.09;10203916;28;21105;-63
2021/06/05 08:15:12;;;;;;;7.95;7.25;;;;;;;21.58;69.56;100526.81;10208271;28;20432;-61
2021/06/05 08:20:17;;;;;;;7.95;7.15;;;;;;;21.73;70.01;100521.38;10206635;28;20090;-61
2021/06/05 08:25:18;;;;;;;6.45;5.85;;;;;;;21.93;67.77;100528.91;10202886;28;20139;-62
2021/06/05 08:30:28;;;;;;;7.18;4.45;;;;;;;22.09;65.27;100531.34;10201472;28;20478;-62
2021/06/05 08:35:30;;;;;;;6.13;3.78;;;;;;;22.12;65.66;100539.09;10203440;28;20051;-62
2021/06/05 08:40:56;;;;;;;5.88;5.35;;;;;;;22.10;65.77;100534.91;10205753;28;20127;-63
2021/06/05 08:46:02;;;;;;;5.82;5.35;;;;;;;22.40;65.88;100525.66;10203093;28;20109;-63
2021/06/05 08:51:16;;;;;;;7.50;6.80;;;;;;;22.79;64.61;100528.91;10203457;28;20054;-63
2021/06/05 08:56:32;;;;;;;6.97;6.28;;;;;;;22.76;64.80;100535.56;10204496;28;20817;-63
2021/06/05 09:01:41;;;;;;;7.13;6.45;;;;;;;22.69;64.55;100536.53;10203739;28;20136;-62
2021/06/05 09:06:47;;;;;;;7.70;6.25;;;;;;;22.67;64.27;100531.31;10203628;28;20054;-62
2021/06/05 09:11:49;;;;;;;5.10;4.70;;;;;;;23.02;63.37;100534.06;10210163;28;20229;-61
2021/06/05 09:16:52;;;;;;;5.87;4.40;;;;;;;23.36;62.04;100529.72;10214513;28;20058;-62
2021/06/05 09:22:06;;;;;;;5.40;4.90;;;;;;;23.53;61.38;100530.19;10197049;28;20082;-62
2021/06/05 09:27:21;;;;;;;3.67;3.30;;;;;;;23.91;59.35;100524.28;10215765;28;20488;-63
2021/06/05 09:32:27;;;;;;;4.38;3.17;;;;;;;24.49;59.57;100523.75;10211946;28;20150;-62
2021/06/05 09:37:40;;;;;;;3.95;3.13;;;;;;;24.86;58.43;100523.34;10212950;28;22000;-62
2021/06/05 09:42:45;;;;;;;3.00;2.70;;;;;;;25.23;56.16;100520.97;10210880;28;20043;-62
2021/06/05 09:47:46;;;;;;;3.40;2.78;;;;;;;25.11;56.19;100533.59;10220153;28;20390;-63
2021/06/05 09:52:48;;;;;;;4.03;2.33;;;;;;;24.66;56.82;100537.81;10198146;28;20134;-62
2021/06/05 09:57:50;;;;;;;4.07;3.78;;;;;;;24.19;57.72;100534.19;10204197;28;20050;-62
2021/06/05 10:03:11;;;;;;;4.10;2.30;;;;;;;24.28;58.57;100538.41;10221556;28;20055;-62
2021/06/05 10:08:28;;;;;;;3.08;2.75;;;;;;;24.15;57.05;100543.81;10222122;28;21751;-62
2021/06/05 10:13:34;;;;;;;3.30;2.28;;;;;;;24.22;57.52;100541.94;10209082;28;20047;-62
2021/06/05 10:19:09;;;;;;;2.33;2.10;;;;;;;24.44;56.89;100536.31;10210246;28;20058;-62
2021/06/05 10:24:27;;;;;;;2.75;2.45;;;;;;;24.45;58.74;100538.00;10208700;28;20115;-62
2021/06/05 10:29:34;;;;;;;3.38;2.75;;;;;;;24.75;57.71;100540.34;10205954;28;20084;-63
2021/06/05 10:34:44;;;;;;;2.70;2.50;;;;;;;25.12;56.21;100538.00;10209696;28;20055;-61
2021/06/05 10:39:46;;;;;;;2.30;2.00;;;;;;;25.50;54.77;100542.72;10209492;28;20051;-64
2021/06/05 10:44:49;;;;;;;3.42;1.98;;;;;;;25.50;55.39;100537.28;10207308;28;21983;-63
2021/06/05 10:50:18;;;;;;;3.10;2.23;;;;;;;25.23;54.60;100531.88;10206940;28;20051;-62
2021/06/05 10:55:31;;;;;;;4.20;2.22;;;;;;;25.14;55.13;100525.00;10207032;28;21367;-63
2021/06/05 11:00:41;;;;;;;2.27;2.07;;;;;;;25.38;54.12;100516.13;10204893;28;20047;-64
2021/06/05 11:05:44;;;;;;;2.83;1.98;;;;;;;25.47;54.55;100513.19;10206701;28;20352;-63
2021/06/05 11:11:19;;;;;;;3.50;2.50;;;;;;;26.05;52.43;100499.50;10205656;28;20058;-64
2021/06/05 11:16:41;;;;;;;3.20;2.20;;;;;;;26.45;52.52;100501.94;10205986;28;20296;-64
2021/06/05 11:22:05;;;;;;;3.85;1.90;;;;;;;27.08;51.30;100491.91;10205116;28;20339;-61
2021/06/05 11:27:31;;;;;;;4.50;2.00;;;;;;;27.23;48.25;100477.03;10207177;28;20452;-63
2021/06/05 11:32:50;;;;;;;1.83;1.73;;;;;;;26.73;48.96;100484.28;10205703;28;20142;-63
2021/06/05 11:37:53;;;;;;;1.70;1.60;;;;;;;26.14;50.52;100474.66;10206498;28;20246;-63
2021/06/05 11:42:56;;;;;;;4.68;2.15;;;;;;;26.00;50.70;100480.25;10206757;28;20047;-63
2021/06/05 11:47:58;;;;;;;3.72;1.67;;;;;;;26.01;51.11;100470.16;10206293;28;20102;-62
2021/06/05 11:53:38;;;;;;;3.05;1.90;;;;;;;26.48;50.39;100469.78;10205404;28;20112;-63
2021/06/05 11:58:40;;;;;;;2.08;1.88;;;;;;;26.54;49.86;100468.88;10200985;28;20545;-62
2021/06/05 12:03:47;;;;;;;;;;;;;;;26.57;49.98;100468.44;10206190;28;20126;-64
2021/06/05 12:09:05;;;;;;;3.45;1.90;;;;;;;26.95;48.36;100451.09;10205684;28;19923;-63
2021/06/05 12:14:25;;;;;;;3.00;2.17;;;;;;;26.79;47.90;100464.25;10203998;28;20201;-64
2021/06/05 12:19:36;;;;;;;2.60;2.40;;;;;;;26.32;49.83;100454.78;10190169;28;20058;-63
2021/06/05 12:24:40;;;;;;;2.63;2.40;;;;;;;26.04;50.18;100456.06;10199026;28;20423;-63
2021/06/05 12:29:42;;;;;;;2.58;2.25;;;;;;;26.16;50.60;100448.00;10198237;28;20051;-63
2021/06/05 12:34:44;;;;;;;4.78;2.10;;;;;;;26.31;50.60;100448.50;10197793;28;20065;-63
2021/06/05 12:39:55;;;;;;;3.17;2.30;;;;;;;26.71;50.24;100453.63;10199142;28;20067;-64
2021/06/05 12:45:08;;;;;;;4.32;2.45;;;;;;;26.55;49.13;100440.53;10201425;28;20436;-64
2021/06/05 12:50:12;;;;;;;;;;;;;;;26.33;50.46;100434.66;10197791;28;20437;-63
2021/06/05 12:55:31;;;;;;;1.90;1.50;;;;;;;26.30;50.09;100435.91;10189123;28;20088;-64
2021/06/05 13:00:37;;;;;;;2.90;1.70;;;;;;;25.71;52.42;100433.38;10196226;28;20203;-63
2021/06/05 13:05:42;;;;;;;2.58;1.90;;;;;;;25.57;52.74;100431.81;10201306;28;20073;-64
2021/06/05 13:10:47;;;;;;;2.10;1.90;;;;;;;25.85;51.81;100436.03;10239237;23;20089;-62
2021/06/05 13:15:52;;;;;;;3.13;1.77;;;;;;;26.24;51.07;100429.47;10327130;28;20210;-62
2021/06/05 13:21:01;;;;;;;2.20;2.00;;;;;;;26.49;50.83;100433.25;10305809;28;20057;-62
2021/06/05 13:26:38;;;;;;;2.80;1.80;;;;;;;26.54;49.79;100438.88;10301997;28;20892;-62
2021/06/05 13:31:43;;;;;;;2.40;1.50;;;;;;;26.11;51.54;100433.16;10305828;28;20503;-63
2021/06/05 13:36:46;;;;;;;1.92;1.77;;;;;;;25.73;52.49;100428.56;10311418;28;20076;-62
2021/06/05 13:41:48;;;;;;;2.75;2.03;;;;;;;25.28;53.86;100409.50;10298448;28;20173;-62
2021/06/05 13:46:50;;;;;;;2.22;2.03;;;;;;;24.58;56.33;100410.16;10296541;28;20137;-63
2021/06/05 13:51:51;;;;;;;2.72;2.30;;;;;;;24.35;57.59;100419.56;10301965;28;20526;-62
2021/06/05 13:56:53;;;;;;;7.00;3.53;;;;;;;24.27;61.46;100427.91;10308410;28;20187;-62
2021/06/05 14:01:54;;;;;;;10.43;4.57;;;;;;;23.97;67.31;100439.19;10305785;28;20671;-62
2021/06/05 14:06:56;;;;;;;5.15;3.10;;;;;;;23.63;68.77;100430.13;10310533;28;22370;-62
2021/06/05 14:11:57;;;;;;;4.90;2.67;;;;;;;23.46;67.54;100431.53;10308558;28;20129;-62
2021/06/05 14:16:59;;;;;;;6.18;3.05;;;;;;;23.34;70.29;100430.47;10306578;28;20046;-62
2021/06/05 14:22:00;;;;;;;5.25;3.38;;;;;;;23.04;72.09;100445.09;10303438;28;20581;-62
2021/06/05 14:27:03;;;;;;;4.93;4.00;;;;;;;22.95;75.86;100440.88;10309618;28;20642;-62
2021/06/05 14:32:05;;;;;;;4.53;3.03;;;;;;;22.86;76.07;100453.78;10302337;28;20058;-60
2021/06/05 14:37:06;;;;;;;4.97;4.47;;;;;;;22.74;77.41;100464.38;10301422;28;20042;-60
2021/06/05 14:42:09;;;;;;;5.13;4.60;;;;;;;22.57;74.70;100474.66;10283130;28;20141;-61
2021/06/05 14:47:11;;;;;;;6.13;5.53;;;;;;;22.11;75.46;100485.91;10283076;28;20121;-60
2021/06/05 14:52:13;;;;;;;8.47;6.23;;;;;;;21.87;80.15;100497.97;10296145;28;20133;-61
2021/06/05 14:57:14;;;;;;;8.15;6.60;;;;;;;21.32;80.59;100478.56;10284102;28;20093;-61
2021/06/05 15:02:18;;;;;;;7.80;7.00;;;;;;;21.30;81.44;100475.19;10300419;28;20141;-61
2021/06/05 15:07:20;;;;;;;8.23;7.43;;;;;;;21.59;82.82;100471.63;10282512;28;20113;-60
2021/06/05 15:12:22;;;;;;;8.65;7.28;;;;;;;22.02;81.39;100462.69;10296384;28;20108;-60
2021/06/05 15:17:23;;;;;;;8.00;6.90;;;;;;;22.49;78.98;100455.84;10296354;28;20524;-60
2021/06/05 15:22:27;;;;;;;9.60;7.32;;;;;;;22.88;78.62;100450.88;10295106;28;20112;-60
2021/06/05 15:27:28;;;;;;;10.50;8.32;;;;;;;23.07;75.08;100454.75;10295352;28;20133;-59
2021/06/05 15:32:30;;;;;;;10.85;7.90;;;;;;;23.04;74.20;100450.53;10294946;28;20551;-60
2021/06/05 15:37:31;;;;;;;8.70;7.90;;;;;;;23.07;76.02;100449.31;10300230;28;20055;-60
2021/06/05 15:42:39;;;;;;;8.48;7.22;;;;;;;23.16;75.13;100458.16;10292856;28;20269;-61
2021/06/05 15:47:40;;;;;;;9.30;8.40;;;;;;;23.22;74.16;100452.75;10297256;28;20155;-61
2021/06/05 15:52:43;;;;;;;9.40;8.40;;;;;;;23.19;74.29;100464.00;10285383;28;20134;-60
2021/06/05 15:57:44;;;;;;;11.33;8.17;;;;;;;23.15;73.62;100456.47;10295462;28;20352;-61
2021/06/05 16:02:46;;;;;;;10.27;8.35;;;;;;;23.19;74.17;100457.75;10283337;28;20127;-62
2021/06/05 16:07:50;;;;;;;11.18;9.50;;;;;;;23.03;74.17;100457.03;10293285;28;20138;-62
2021/06/05 16:12:52;;;;;;;10.32;9.25;;;;;;;22.94;73.03;100445.50;10280548;28;20243;-61
2021/06/05 16:17:55;;;;;;;11.68;9.02;;;;;;;23.15;73.97;100438.31;10284765;28;20125;-61
2021/06/05 16:22:56;;;;;;;;;;;;;;;23.20;73.00;100433.13;10296864;28;20234;-61
2021/06/05 16:27:58;;;;;;;8.90;8.00;;;;;;;23.21;71.39;100423.06;10280924;28;20113;-62
2021/06/05 16:33:01;;;;;;;8.68;7.75;;;;;;;23.16;73.72;100425.56;10281872;28;20189;-62
2021/06/05 16:38:08;;;;;;;8.88;7.68;;;;;;;23.17;73.29;100432.69;10280816;28;20129;-62
2021/06/05 16:43:10;;;;;;;8.50;7.63;;;;;;;23.22;74.77;100425.59;10284761;28;20090;-62
2021/06/05 16:48:12;;;;;;;7.82;7.13;;;;;;;23.23;75.25;100432.72;10291666;28;20072;-61
2021/06/05 16:53:16;;;;;;;8.05;7.25;;;;;;;23.20;72.66;100426.84;10295174;28;20070;-61
2021/06/05 16:58:20;;;;;;;7.82;7.13;;;;;;;23.18;73.32;100445.22;10280863;28;20676;-62
2021/06/05 17:03:24;;;;;;;8.32;7.50;;;;;;;23.01;72.81;100456.38;10291381;28;20101;-60
2021/06/05 17:08:25;;;;;;;7.05;6.30;;;;;;;22.83;71.58;100454.19;10292436;28;20070;-60
2021/06/05 17:13:27;;;;;;;8.13;7.30;;;;;;;22.73;73.27;100464.56;10290191;28;20054;-62
2021/06/05 17:18:34;;;;;;;6.90;6.30;;;;;;;22.59;73.73;100472.63;10301447;28;20145;-63
2021/06/05 17:23:41;;;;;;;6.60;6.00;;;;;;;22.56;73.08;100473.00;10283878;28;20054;-61
2021/06/05 17:28:42;;;;;;;7.10;5.82;;;;;;;22.44;74.08;100466.44;10289673;28;20054;-60
2021/06/05 17:33:45;;;;;;;7.40;6.70;;;;;;;22.39;76.77;100468.91;10300281;28;20579;-60
2021/06/05 17:38:47;;;;;;;7.40;6.77;;;;;;;22.33;77.83;100467.81;10291855;28;20054;-61
2021/06/05 17:43:48;;;;;;;7.38;6.65;;;;;;;22.31;76.50;100467.16;10296130;28;20203;-61
2021/06/05 17:48:50;;;;;;;8.60;6.82;;;;;;;22.27;78.88;100465.03;10288028;28;20124;-61
2021/06/05 17:54:04;;;;;;;7.80;7.00;;;;;;;22.17;76.59;100455.34;10289897;28;20066;-61
2021/06/05 17:59:06;;;;;;;8.13;7.10;;;;;;;21.99;75.81;100457.66;10288970;28;20313;-62
2021/06/05 18:04:15;;;;;;;7.53;6.82;;;;;;;21.93;76.26;100453.00;10294365;28;20182;-65
2021/06/05 18:09:16;;;;;;;8.32;7.40;;;;;;;21.93;76.89;100453.00;10297191;28;20510;-61
2021/06/05 18:14:27;;;;;;;6.30;5.70;;;;;;;21.92;77.32;100454.03;10292062;28;20078;-60
2021/06/05 18:19:30;;;;;;;7.88;6.88;;;;;;;21.94;75.82;100455.53;10283779;28;20066;-59
2021/06/05 18:24:36;;;;;;;15.82;14.25;;;;;;;21.96;78.05;100453.47;10278453;28;20906;-59
2021/06/05 18:29:38;;;;;;;9.18;8.27;;;;;;;21.95;76.29;100453.66;10293307;28;22613;-58
2021/06/05 18:34:40;;;;;;;7.97;7.22;;;;;;;21.86;75.72;100447.53;10299887;28;20054;-59
2021/06/05 18:39:42;;;;;;;5.32;4.47;;;;;;;21.88;77.11;100457.13;10300830;28;20066;-59
2021/06/05 18:44:44;;;;;;;4.82;4.43;;;;;;;21.85;77.92;100460.22;10297213;28;20180;-59
2021/06/05 18:49:45;;;;;;;5.45;4.82;;;;;;;21.78;77.05;100482.88;10299850;28;20140;-54
2021/06/05 18:54:47;;;;;;;8.38;7.03;;;;;;;21.57;76.38;100487.22;10294121;28;21538;-54
2021/06/05 18:59:48;;;;;;;11.80;9.68;;;;;;;21.30;76.08;100489.59;10284471;28;20057;-54
2021/06/05 19:04:50;;;;;;;13.73;12.32;;;;;;;21.11;79.89;100482.03;10298811;28;20786;-53
2021/06/05 19:09:51;;;;;;;17.88;15.45;;;;;;;21.19;82.41;100490.88;10299815;28;20184;-52
2021/06/05 19:14:53;;;;;;;20.52;16.88;;;;;;;21.06;83.46;100496.09;10286340;28;20128;-53
2021/06/05 19:19:54;;;;;;;18.35;16.45;;;;;;;21.06;83.51;100504.22;10278642;28;20046;-54
2021/06/05 19:24:55;;;;;;;18.17;16.38;;;;;;;20.93;83.02;100517.59;10287108;23;20783;-49
2021/06/05 19:29:57;;;;;;;21.27;19.05;;;;;;;20.98;84.68;100534.09;10265067;28;20492;-51
2021/06/05 19:34:58;;;;;;;18.60;16.80;;;;;;;21.04;84.18;100535.22;10252652;28;20456;-51
2021/06/05 19:40:00;;;;;;;19.77;17.80;;;;;;;20.98;84.61;100536.78;10254270;28;20046;-50
2021/06/05 19:45:04;;;;;;;26.25;23.63;;;;;;;20.94;83.80;100541.75;10253281;28;20078;-52
2021/06/05 19:50:07;;;;;;;27.25;24.38;;;;;;;20.85;84.47;100542.81;10250036;28;20153;-51
2021/06/05 19:55:10;;;;;;;30.83;27.52;;;;;;;20.75;85.25;100544.97;10244917;28;20134;-53
2021/06/05 20:00:17;;;;;;;30.17;27.08;;;;;;;20.86;87.92;100544.50;10251604;28;20422;-50
2021/06/05 20:05:20;;;;;;;34.80;30.98;;;;;;;20.92;87.68;100559.19;10239100;28;20129;-55
2021/06/05 20:10:24;;;;;;;39.00;34.22;;;;;;;20.89;86.13;100563.09;10248868;28;20061;-51
2021/06/05 20:15:30;;;;;;;39.15;34.97;;;;;;;20.89;86.45;100583.91;10255979;28;20150;-48
2021/06/05 20:20:36;;;;;;;45.40;40.50;;;;;;;20.90;86.36;100577.47;10243414;28;20133;-50
2021/06/05 20:25:38;;;;;;;45.55;38.72;;;;;;;20.83;87.32;100591.72;10248905;28;20460;-51
2021/06/05 20:30:40;;;;;;;42.33;37.72;;;;;;;20.71;84.63;100585.06;10246030;28;20142;-53
2021/06/05 20:35:43;;;;;;;46.50;41.28;;;;;;;20.65;85.93;100585.75;10253238;28;20260;-52
2021/06/05 20:40:44;;;;;;;50.70;42.53;;;;;;;20.62;83.63;100596.94;10253922;28;20142;-53
2021/06/05 20:45:46;;;;;;;47.53;40.83;;;;;;;20.51;84.85;100608.16;10249239;28;20050;-48
2021/06/05 20:50:47;;;;;;;49.47;40.53;;;;;;;20.45;87.76;100607.03;10250565;28;20061;-52
2021/06/05 20:55:49;;;;;;;51.78;41.97;;;;;;;20.53;88.00;100611.53;10251605;28;20134;-49
2021/06/05 21:00:52;;;;;;;45.47;37.50;;;;;;;20.37;85.13;100612.50;10257159;28;20141;-51
2021/06/05 21:05:56;;;;;;;45.80;38.28;;;;;;;20.35;86.84;100612.66;10255600;28;20812;-53
2021/06/05 21:10:57;;;;;;;;;;;;;;;20.47;86.46;100626.63;10250574;28;20054;-48
2021/06/05 21:15:59;;;;;;;47.55;37.30;;;;;;;20.52;82.19;100623.38;10243081;28;20076;-51
2021/06/05 21:21:05;;;;;;;51.92;39.28;;;;;;;20.49;80.44;100622.72;10249902;28;21253;-50
2021/06/05 21:26:08;;;;;;;50.92;38.22;;;;;;;20.46;83.13;100619.53;10233894;28;20698;-50
2021/06/05 21:31:09;;;;;;;45.95;36.38;;;;;;;20.42;80.21;100624.44;10217702;28;20487;-50
2021/06/05 21:36:11;;;;;;;52.40;39.00;;;;;;;20.41;83.14;100630.88;10236602;28;20119;-48
2021/06/05 21:41:13;;;;;;;48.13;36.15;;;;;;;20.43;79.75;100630.69;10230295;28;20047;-52
2021/06/05 21:46:15;;;;;;;38.47;32.28;;;;;;;20.39;80.08;100632.91;10242794;28;20252;-49
2021/06/05 21:51:21;;;;;;;34.70;28.45;;;;;;;20.40;79.06;100636.47;10242419;28;20051;-50
2021/06/05 21:56:25;;;;;;;28.80;25.33;;;;;;;20.37;78.33;100637.69;10240611;28;20066;-53
2021/06/05 22:01:26;;;;;;;;;;;;;;;20.30;77.00;100640.25;10249694;28;20130;-51
2021/06/05 22:06:32;;;;;;;24.15;21.55;;;;;;;20.24;80.79;100653.63;10240592;28;19922;-54
2021/06/05 22:11:38;;;;;;;25.77;21.25;;;;;;;20.11;80.08;100649.63;10243076;28;20063;-50
2021/06/05 22:16:47;;;;;;;27.08;22.05;;;;;;;20.09;82.26;100646.25;10242376;28;20043;-52
2021/06/05 22:22:19;;;;;;;25.88;21.48;;;;;;;20.09;82.55;100658.94;10237765;28;20165;-54
2021/06/05 22:27:31;;;;;;;27.00;21.45;;;;;;;20.07;82.49;100631.22;10239886;28;20135;-49
2021/06/05 22:32:32;;;;;;;21.75;17.77;;;;;;;20.08;81.05;100633.75;10255636;28;20094;-52
2021/06/05 22:37:35;;;;;;;24.63;19.77;;;;;;;20.05;81.92;100634.13;10255273;28;20050;-49
2021/06/05 22:42:36;;;;;;;22.30;18.90;;;;;;;20.07;81.71;100639.34;10246049;28;20085;-51
2021/06/05 22:47:38;;;;;;;18.85;16.95;;;;;;;20.00;80.99;100631.13;10249751;28;20067;-50
2021/06/05 22:52:39;;;;;;;20.08;17.33;;;;;;;19.97;81.73;100628.75;10243701;28;20134;-51
2021/06/05 22:57:41;;;;;;;19.92;16.85;;;;;;;19.93;80.75;100630.13;10243141;28;20497;-51
2021/06/05 23:02:42;;;;;;;18.10;16.15;;;;;;;19.86;79.71;100623.72;10247562;28;20134;-53
2021/06/05 23:07:44;;;;;;;17.02;15.23;;;;;;;19.82;81.90;100623.25;10247351;28;20143;-49
2021/06/05 23:12:46;;;;;;;15.73;14.07;;;;;;;19.83;80.60;100629.50;10242629;28;20516;-52
2021/06/05 23:17:47;;;;;;;16.67;14.98;;;;;;;19.79;80.10;100623.59;10242798;28;20254;-49